sensor_id;sensor_type;location;lat;lon;timestamp;P1;durP1;ratioP1;P2;durP2;ratioP2
60416;SDS011;46263;44.726;10.396;2023-02-11T00:03:49;32.28;;;16.70;;
60416;SDS011;46263;44.726;10.396;2023-02-11T00:06:15;22.02;;;12.05;;
60416;SDS011;46263;44.726;10.396;2023-02-11T00:08:41;19.23;;;10.60;;
60416;SDS011;46263;44.726;10.396;2023-02-11T00:11:09;19.60;;;11.27;;
60416;SDS011;46263;44.726;10.396;2023-02-11T00:13:38;20.35;;;11.50;;
60416;SDS011;46263;44.726;10.396;2023-02-11T00:16:07;22.35;;;12.23;;
60416;SDS011;46263;44.726;10.396;2023-02-11T00:18:34;22.95;;;12.88;;
60416;SDS011;46263;44.726;10.396;2023-02-11T00:21:04;20.70;;;12.02;;
60416;SDS011;46263;44.726;10.396;2023-02-11T00:23:41;22.50;;;11.13;;
60416;SDS011;46263;44.726;10.396;2023-02-11T00:26:11;24.50;;;10.98;;
60416;SDS011;46263;44.726;10.396;2023-02-11T00:28:41;18.25;;;10.15;;
60416;SDS011;46263;44.726;10.396;2023-02-11T00:31:07;19.27;;;10.88;;
60416;SDS011;46263;44.726;10.396;2023-02-11T00:33:33;14.77;;;9.05;;
60416;SDS011;46263;44.726;10.396;2023-02-11T00:36:02;17.83;;;9.18;;
60416;SDS011;46263;44.726;10.396;2023-02-11T00:38:29;14.95;;;8.68;;
60416;SDS011;46263;44.726;10.396;2023-02-11T00:40:55;13.95;;;8.70;;
60416;SDS011;46263;44.726;10.396;2023-02-11T00:43:20;14.27;;;8.20;;
60416;SDS011;46263;44.726;10.396;2023-02-11T00:45:46;16.13;;;8.70;;
60416;SDS011;46263;44.726;10.396;2023-02-11T00:48:11;13.25;;;7.95;;
60416;SDS011;46263;44.726;10.396;2023-02-11T00:50:37;14.93;;;7.82;;
60416;SDS011;46263;44.726;10.396;2023-02-11T00:53:02;12.98;;;7.28;;
60416;SDS011;46263;44.726;10.396;2023-02-11T00:55:28;12.95;;;7.40;;
60416;SDS011;46263;44.726;10.396;2023-02-11T00:57:54;16.63;;;8.43;;
60416;SDS011;46263;44.726;10.396;2023-02-11T01:00:19;16.52;;;8.00;;
60416;SDS011;46263;44.726;10.396;2023-02-11T01:02:46;10.98;;;7.13;;
60416;SDS011;46263;44.726;10.396;2023-02-11T01:05:12;13.30;;;7.10;;
60416;SDS011;46263;44.726;10.396;2023-02-11T01:07:37;13.00;;;7.43;;
60416;SDS011;46263;44.726;10.396;2023-02-11T01:10:03;14.25;;;7.65;;
60416;SDS011;46263;44.726;10.396;2023-02-11T01:12:29;15.23;;;7.68;;
60416;SDS011;46263;44.726;10.396;2023-02-11T01:14:54;13.23;;;6.93;;
60416;SDS011;46263;44.726;10.396;2023-02-11T01:17:20;13.50;;;7.13;;
60416;SDS011;46263;44.726;10.396;2023-02-11T01:19:45;12.20;;;6.93;;
60416;SDS011;46263;44.726;10.396;2023-02-11T01:22:11;12.25;;;7.05;;
60416;SDS011;46263;44.726;10.396;2023-02-11T01:24:37;11.98;;;6.68;;
60416;SDS011;46263;44.726;10.396;2023-02-11T01:27:02;11.93;;;6.88;;
60416;SDS011;46263;44.726;10.396;2023-02-11T01:29:28;10.50;;;7.07;;
60416;SDS011;46263;44.726;10.396;2023-02-11T01:31:53;10.85;;;6.40;;
60416;SDS011;46263;44.726;10.396;2023-02-11T01:34:19;12.65;;;6.22;;
60416;SDS011;46263;44.726;10.396;2023-02-11T01:36:45;10.85;;;6.57;;
60416;SDS011;46263;44.726;10.396;2023-02-11T01:39:10;12.13;;;6.57;;
60416;SDS011;46263;44.726;10.396;2023-02-11T01:41:36;11.68;;;7.22;;
60416;SDS011;46263;44.726;10.396;2023-02-11T01:46:51;10.60;;;6.30;;
60416;SDS011;46263;44.726;10.396;2023-02-11T01:49:17;9.15;;;6.55;;
60416;SDS011;46263;44.726;10.396;2023-02-11T01:51:50;10.73;;;5.75;;
60416;SDS011;46263;44.726;10.396;2023-02-11T01:54:20;9.95;;;6.03;;
60416;SDS011;46263;44.726;10.396;2023-02-11T01:57:07;9.20;;;6.05;;
60416;SDS011;46263;44.726;10.396;2023-02-11T02:02:41;9.73;;;5.93;;
60416;SDS011;46263;44.726;10.396;2023-02-11T02:05:13;9.90;;;6.10;;
60416;SDS011;46263;44.726;10.396;2023-02-11T02:10:50;9.35;;;5.60;;
60416;SDS011;46263;44.726;10.396;2023-02-11T02:13:20;11.15;;;6.50;;
60416;SDS011;46263;44.726;10.396;2023-02-11T02:15:48;10.15;;;5.75;;
60416;SDS011;46263;44.726;10.396;2023-02-11T02:40:16;11.32;;;6.60;;
60416;SDS011;46263;44.726;10.396;2023-02-11T02:42:47;11.38;;;6.68;;
60416;SDS011;46263;44.726;10.396;2023-02-11T02:45:14;10.40;;;6.13;;
60416;SDS011;46263;44.726;10.396;2023-02-11T02:47:40;12.13;;;6.65;;
60416;SDS011;46263;44.726;10.396;2023-02-11T02:50:05;9.55;;;5.43;;
60416;SDS011;46263;44.726;10.396;2023-02-11T02:52:34;8.73;;;5.53;;
60416;SDS011;46263;44.726;10.396;2023-02-11T03:09:44;8.25;;;5.50;;
60416;SDS011;46263;44.726;10.396;2023-02-11T03:12:17;8.60;;;5.22;;
60416;SDS011;46263;44.726;10.396;2023-02-11T03:14:45;7.25;;;5.10;;
60416;SDS011;46263;44.726;10.396;2023-02-11T03:17:11;8.57;;;4.93;;
60416;SDS011;46263;44.726;10.396;2023-02-11T03:19:40;8.07;;;5.18;;
60416;SDS011;46263;44.726;10.396;2023-02-11T03:25:15;7.15;;;4.90;;
60416;SDS011;46263;44.726;10.396;2023-02-11T03:30:17;7.13;;;4.75;;
60416;SDS011;46263;44.726;10.396;2023-02-11T03:32:48;7.55;;;5.30;;
60416;SDS011;46263;44.726;10.396;2023-02-11T03:35:33;7.50;;;4.55;;
60416;SDS011;46263;44.726;10.396;2023-02-11T03:38:06;6.20;;;4.20;;
60416;SDS011;46263;44.726;10.396;2023-02-11T03:40:39;8.45;;;4.05;;
60416;SDS011;46263;44.726;10.396;2023-02-11T03:43:12;7.60;;;4.20;;
60416;SDS011;46263;44.726;10.396;2023-02-11T03:45:42;6.22;;;3.88;;
60416;SDS011;46263;44.726;10.396;2023-02-11T03:48:13;8.82;;;4.80;;
60416;SDS011;46263;44.726;10.396;2023-02-11T03:50:43;7.43;;;4.38;;
60416;SDS011;46263;44.726;10.396;2023-02-11T03:53:13;7.78;;;4.10;;
60416;SDS011;46263;44.726;10.396;2023-02-11T03:55:40;6.15;;;3.78;;
60416;SDS011;46263;44.726;10.396;2023-02-11T03:58:08;8.38;;;4.38;;
60416;SDS011;46263;44.726;10.396;2023-02-11T04:00:35;6.93;;;4.38;;
60416;SDS011;46263;44.726;10.396;2023-02-11T04:03:04;6.55;;;3.67;;
60416;SDS011;46263;44.726;10.396;2023-02-11T04:05:30;7.00;;;4.03;;
60416;SDS011;46263;44.726;10.396;2023-02-11T04:07:56;6.60;;;4.30;;
60416;SDS011;46263;44.726;10.396;2023-02-11T04:10:22;8.27;;;4.38;;
60416;SDS011;46263;44.726;10.396;2023-02-11T04:12:47;7.75;;;4.60;;
60416;SDS011;46263;44.726;10.396;2023-02-11T04:15:13;6.32;;;4.15;;
60416;SDS011;46263;44.726;10.396;2023-02-11T04:17:39;7.35;;;3.70;;
60416;SDS011;46263;44.726;10.396;2023-02-11T04:20:05;6.72;;;4.15;;
60416;SDS011;46263;44.726;10.396;2023-02-11T04:22:30;10.13;;;4.15;;
60416;SDS011;46263;44.726;10.396;2023-02-11T04:24:56;7.00;;;4.18;;
60416;SDS011;46263;44.726;10.396;2023-02-11T04:27:22;7.50;;;4.00;;
60416;SDS011;46263;44.726;10.396;2023-02-11T04:29:47;7.93;;;4.78;;
60416;SDS011;46263;44.726;10.396;2023-02-11T04:32:13;5.80;;;3.65;;
60416;SDS011;46263;44.726;10.396;2023-02-11T04:34:39;6.05;;;4.40;;
60416;SDS011;46263;44.726;10.396;2023-02-11T04:37:05;6.13;;;4.05;;
60416;SDS011;46263;44.726;10.396;2023-02-11T04:39:31;8.23;;;4.60;;
60416;SDS011;46263;44.726;10.396;2023-02-11T04:41:56;6.43;;;3.78;;
60416;SDS011;46263;44.726;10.396;2023-02-11T04:44:22;8.88;;;4.00;;
60416;SDS011;46263;44.726;10.396;2023-02-11T04:46:47;6.93;;;4.18;;
60416;SDS011;46263;44.726;10.396;2023-02-11T04:49:13;6.68;;;3.92;;
60416;SDS011;46263;44.726;10.396;2023-02-11T04:51:40;12.48;;;4.20;;
60416;SDS011;46263;44.726;10.396;2023-02-11T04:54:07;6.40;;;3.45;;
60416;SDS011;46263;44.726;10.396;2023-02-11T04:56:32;8.23;;;3.67;;
60416;SDS011;46263;44.726;10.396;2023-02-11T04:58:58;6.15;;;4.30;;
60416;SDS011;46263;44.726;10.396;2023-02-11T05:01:24;8.20;;;3.88;;
60416;SDS011;46263;44.726;10.396;2023-02-11T05:03:50;6.45;;;4.07;;
60416;SDS011;46263;44.726;10.396;2023-02-11T05:06:15;10.48;;;4.70;;
60416;SDS011;46263;44.726;10.396;2023-02-11T05:08:41;8.70;;;4.22;;
60416;SDS011;46263;44.726;10.396;2023-02-11T05:11:08;9.00;;;3.67;;
60416;SDS011;46263;44.726;10.396;2023-02-11T05:13:40;4.17;;;3.07;;
60416;SDS011;46263;44.726;10.396;2023-02-11T05:16:05;6.78;;;3.90;;
60416;SDS011;46263;44.726;10.396;2023-02-11T05:18:31;6.10;;;3.45;;
60416;SDS011;46263;44.726;10.396;2023-02-11T05:20:56;5.35;;;3.30;;
60416;SDS011;46263;44.726;10.396;2023-02-11T05:23:22;5.38;;;3.42;;
60416;SDS011;46263;44.726;10.396;2023-02-11T05:25:47;16.10;;;3.97;;
60416;SDS011;46263;44.726;10.396;2023-02-11T05:28:13;6.35;;;3.70;;
60416;SDS011;46263;44.726;10.396;2023-02-11T05:30:40;5.88;;;3.50;;
60416;SDS011;46263;44.726;10.396;2023-02-11T05:33:05;7.00;;;4.22;;
60416;SDS011;46263;44.726;10.396;2023-02-11T05:35:31;6.00;;;3.78;;
60416;SDS011;46263;44.726;10.396;2023-02-11T05:37:56;7.40;;;4.88;;
60416;SDS011;46263;44.726;10.396;2023-02-11T05:40:22;9.60;;;4.40;;
60416;SDS011;46263;44.726;10.396;2023-02-11T05:42:47;7.20;;;4.50;;
60416;SDS011;46263;44.726;10.396;2023-02-11T05:45:13;5.72;;;3.47;;
60416;SDS011;46263;44.726;10.396;2023-02-11T05:47:39;8.15;;;3.80;;
60416;SDS011;46263;44.726;10.396;2023-02-11T05:50:04;6.90;;;3.67;;
60416;SDS011;46263;44.726;10.396;2023-02-11T05:52:30;6.13;;;3.85;;
60416;SDS011;46263;44.726;10.396;2023-02-11T05:54:56;7.72;;;4.43;;
60416;SDS011;46263;44.726;10.396;2023-02-11T05:57:21;8.57;;;3.95;;
60416;SDS011;46263;44.726;10.396;2023-02-11T05:59:47;7.20;;;3.80;;
60416;SDS011;46263;44.726;10.396;2023-02-11T06:02:13;5.65;;;3.95;;
60416;SDS011;46263;44.726;10.396;2023-02-11T06:04:38;6.22;;;3.97;;
60416;SDS011;46263;44.726;10.396;2023-02-11T06:07:04;4.75;;;3.95;;
60416;SDS011;46263;44.726;10.396;2023-02-11T06:09:29;7.43;;;4.32;;
60416;SDS011;46263;44.726;10.396;2023-02-11T06:11:55;5.53;;;3.70;;
60416;SDS011;46263;44.726;10.396;2023-02-11T06:14:21;6.53;;;3.80;;
60416;SDS011;46263;44.726;10.396;2023-02-11T06:16:46;5.60;;;3.85;;
60416;SDS011;46263;44.726;10.396;2023-02-11T06:19:12;5.50;;;3.67;;
60416;SDS011;46263;44.726;10.396;2023-02-11T06:21:38;5.30;;;3.85;;
60416;SDS011;46263;44.726;10.396;2023-02-11T06:24:04;7.50;;;4.13;;
60416;SDS011;46263;44.726;10.396;2023-02-11T06:26:30;6.05;;;3.70;;
60416;SDS011;46263;44.726;10.396;2023-02-11T06:28:58;5.20;;;3.67;;
60416;SDS011;46263;44.726;10.396;2023-02-11T06:31:24;6.35;;;3.90;;
60416;SDS011;46263;44.726;10.396;2023-02-11T06:33:50;5.28;;;3.78;;
60416;SDS011;46263;44.726;10.396;2023-02-11T06:36:17;7.05;;;4.15;;
60416;SDS011;46263;44.726;10.396;2023-02-11T06:38:45;7.93;;;4.35;;
60416;SDS011;46263;44.726;10.396;2023-02-11T06:41:15;7.03;;;4.05;;
60416;SDS011;46263;44.726;10.396;2023-02-11T06:43:44;7.40;;;5.15;;
60416;SDS011;46263;44.726;10.396;2023-02-11T06:46:10;9.73;;;5.32;;
60416;SDS011;46263;44.726;10.396;2023-02-11T06:48:36;9.90;;;5.82;;
60416;SDS011;46263;44.726;10.396;2023-02-11T06:51:02;9.50;;;5.15;;
60416;SDS011;46263;44.726;10.396;2023-02-11T06:53:29;9.20;;;5.30;;
60416;SDS011;46263;44.726;10.396;2023-02-11T06:56:00;10.00;;;6.30;;
60416;SDS011;46263;44.726;10.396;2023-02-11T06:58:26;8.68;;;4.82;;
60416;SDS011;46263;44.726;10.396;2023-02-11T07:00:52;7.68;;;4.85;;
60416;SDS011;46263;44.726;10.396;2023-02-11T07:03:18;10.77;;;5.05;;
60416;SDS011;46263;44.726;10.396;2023-02-11T07:05:43;10.88;;;5.50;;
60416;SDS011;46263;44.726;10.396;2023-02-11T07:08:09;10.50;;;5.47;;
60416;SDS011;46263;44.726;10.396;2023-02-11T07:10:34;9.10;;;5.47;;
60416;SDS011;46263;44.726;10.396;2023-02-11T07:13:00;10.60;;;5.93;;
60416;SDS011;46263;44.726;10.396;2023-02-11T07:15:26;11.00;;;5.47;;
60416;SDS011;46263;44.726;10.396;2023-02-11T07:17:51;10.57;;;6.10;;
60416;SDS011;46263;44.726;10.396;2023-02-11T07:20:17;10.52;;;5.78;;
60416;SDS011;46263;44.726;10.396;2023-02-11T07:22:43;9.65;;;5.95;;
60416;SDS011;46263;44.726;10.396;2023-02-11T07:25:08;12.70;;;5.97;;
60416;SDS011;46263;44.726;10.396;2023-02-11T07:27:34;11.07;;;6.47;;
60416;SDS011;46263;44.726;10.396;2023-02-11T07:30:00;9.55;;;6.20;;
60416;SDS011;46263;44.726;10.396;2023-02-11T07:32:25;13.52;;;6.32;;
60416;SDS011;46263;44.726;10.396;2023-02-11T07:34:54;12.48;;;6.55;;
60416;SDS011;46263;44.726;10.396;2023-02-11T07:37:20;11.30;;;5.97;;
60416;SDS011;46263;44.726;10.396;2023-02-11T07:39:45;13.73;;;6.78;;
60416;SDS011;46263;44.726;10.396;2023-02-11T07:42:11;14.07;;;6.57;;
60416;SDS011;46263;44.726;10.396;2023-02-11T07:44:37;11.35;;;5.70;;
60416;SDS011;46263;44.726;10.396;2023-02-11T07:47:02;13.43;;;7.80;;
60416;SDS011;46263;44.726;10.396;2023-02-11T07:49:28;11.38;;;6.72;;
60416;SDS011;46263;44.726;10.396;2023-02-11T07:51:54;12.02;;;6.32;;
60416;SDS011;46263;44.726;10.396;2023-02-11T07:54:19;19.27;;;7.97;;
60416;SDS011;46263;44.726;10.396;2023-02-11T07:56:45;39.55;;;12.70;;
60416;SDS011;46263;44.726;10.396;2023-02-11T07:59:10;19.42;;;8.40;;
60416;SDS011;46263;44.726;10.396;2023-02-11T08:01:36;17.00;;;8.30;;
60416;SDS011;46263;44.726;10.396;2023-02-11T08:04:02;16.17;;;6.68;;
60416;SDS011;46263;44.726;10.396;2023-02-11T08:06:29;12.30;;;6.40;;
60416;SDS011;46263;44.726;10.396;2023-02-11T08:08:57;12.50;;;6.38;;
60416;SDS011;46263;44.726;10.396;2023-02-11T08:11:27;10.13;;;6.00;;
60416;SDS011;46263;44.726;10.396;2023-02-11T08:13:53;11.32;;;6.20;;
60416;SDS011;46263;44.726;10.396;2023-02-11T08:16:32;12.48;;;6.28;;
60416;SDS011;46263;44.726;10.396;2023-02-11T08:19:00;12.52;;;6.07;;
60416;SDS011;46263;44.726;10.396;2023-02-11T08:21:27;9.93;;;5.25;;
60416;SDS011;46263;44.726;10.396;2023-02-11T08:23:53;7.95;;;5.00;;
60416;SDS011;46263;44.726;10.396;2023-02-11T08:26:24;11.60;;;5.18;;
60416;SDS011;46263;44.726;10.396;2023-02-11T08:28:52;9.65;;;5.25;;
60416;SDS011;46263;44.726;10.396;2023-02-11T08:31:20;11.07;;;6.35;;
60416;SDS011;46263;44.726;10.396;2023-02-11T08:33:47;17.38;;;7.90;;
60416;SDS011;46263;44.726;10.396;2023-02-11T08:36:17;17.17;;;9.93;;
60416;SDS011;46263;44.726;10.396;2023-02-11T08:38:47;19.45;;;9.23;;
60416;SDS011;46263;44.726;10.396;2023-02-11T08:41:14;15.55;;;8.60;;
60416;SDS011;46263;44.726;10.396;2023-02-11T08:43:40;18.50;;;8.70;;
60416;SDS011;46263;44.726;10.396;2023-02-11T08:46:07;14.63;;;8.55;;
60416;SDS011;46263;44.726;10.396;2023-02-11T08:48:33;18.27;;;10.40;;
60416;SDS011;46263;44.726;10.396;2023-02-11T08:51:04;16.63;;;9.27;;
60416;SDS011;46263;44.726;10.396;2023-02-11T08:53:30;16.10;;;9.85;;
60416;SDS011;46263;44.726;10.396;2023-02-11T08:55:56;20.40;;;9.85;;
60416;SDS011;46263;44.726;10.396;2023-02-11T08:58:21;18.20;;;9.93;;
60416;SDS011;46263;44.726;10.396;2023-02-11T09:00:47;20.00;;;11.43;;
60416;SDS011;46263;44.726;10.396;2023-02-11T09:03:14;21.75;;;11.35;;
60416;SDS011;46263;44.726;10.396;2023-02-11T09:05:40;24.35;;;12.82;;
60416;SDS011;46263;44.726;10.396;2023-02-11T09:08:10;23.95;;;12.32;;
60416;SDS011;46263;44.726;10.396;2023-02-11T09:10:37;23.50;;;11.90;;
60416;SDS011;46263;44.726;10.396;2023-02-11T09:13:03;22.35;;;12.85;;
60416;SDS011;46263;44.726;10.396;2023-02-11T09:15:30;25.98;;;13.77;;
60416;SDS011;46263;44.726;10.396;2023-02-11T09:17:56;22.38;;;11.48;;
60416;SDS011;46263;44.726;10.396;2023-02-11T09:20:21;21.75;;;12.10;;
60416;SDS011;46263;44.726;10.396;2023-02-11T09:22:47;23.65;;;12.65;;
60416;SDS011;46263;44.726;10.396;2023-02-11T09:25:13;23.40;;;12.85;;
60416;SDS011;46263;44.726;10.396;2023-02-11T09:27:39;26.40;;;13.35;;
60416;SDS011;46263;44.726;10.396;2023-02-11T09:30:05;27.67;;;12.02;;
60416;SDS011;46263;44.726;10.396;2023-02-11T09:32:31;23.38;;;11.38;;
60416;SDS011;46263;44.726;10.396;2023-02-11T09:34:56;23.15;;;11.45;;
60416;SDS011;46263;44.726;10.396;2023-02-11T09:37:22;25.95;;;11.82;;
60416;SDS011;46263;44.726;10.396;2023-02-11T09:39:47;21.98;;;12.45;;
60416;SDS011;46263;44.726;10.396;2023-02-11T09:44:55;22.65;;;12.20;;
60416;SDS011;46263;44.726;10.396;2023-02-11T09:47:29;19.40;;;11.35;;
60416;SDS011;46263;44.726;10.396;2023-02-11T09:50:02;21.85;;;11.70;;
60416;SDS011;46263;44.726;10.396;2023-02-11T09:52:34;26.17;;;13.30;;
60416;SDS011;46263;44.726;10.396;2023-02-11T09:55:20;21.83;;;12.88;;
60416;SDS011;46263;44.726;10.396;2023-02-11T09:57:51;25.67;;;12.80;;
60416;SDS011;46263;44.726;10.396;2023-02-11T10:16:42;23.50;;;13.93;;
60416;SDS011;46263;44.726;10.396;2023-02-11T10:19:33;25.98;;;14.63;;
60416;SDS011;46263;44.726;10.396;2023-02-11T10:24:55;26.35;;;14.73;;
60416;SDS011;46263;44.726;10.396;2023-02-11T10:27:26;28.15;;;15.90;;
60416;SDS011;46263;44.726;10.396;2023-02-11T10:30:06;30.17;;;15.97;;
60416;SDS011;46263;44.726;10.396;2023-02-11T10:35:37;30.60;;;13.27;;
60416;SDS011;46263;44.726;10.396;2023-02-11T10:38:03;29.02;;;15.80;;
60416;SDS011;46263;44.726;10.396;2023-02-11T10:40:29;34.13;;;17.35;;
60416;SDS011;46263;44.726;10.396;2023-02-11T10:43:03;32.15;;;15.10;;
60416;SDS011;46263;44.726;10.396;2023-02-11T10:47:57;28.08;;;15.02;;
60416;SDS011;46263;44.726;10.396;2023-02-11T10:50:27;27.10;;;13.98;;
60416;SDS011;46263;44.726;10.396;2023-02-11T10:53:10;24.50;;;13.55;;
60416;SDS011;46263;44.726;10.396;2023-02-11T10:55:47;27.35;;;14.35;;
60416;SDS011;46263;44.726;10.396;2023-02-11T10:58:22;27.27;;;15.15;;
60416;SDS011;46263;44.726;10.396;2023-02-11T11:00:54;30.85;;;14.57;;
60416;SDS011;46263;44.726;10.396;2023-02-11T11:03:22;25.08;;;14.05;;
60416;SDS011;46263;44.726;10.396;2023-02-11T11:06:02;26.58;;;15.40;;
60416;SDS011;46263;44.726;10.396;2023-02-11T11:11:09;24.20;;;13.40;;
60416;SDS011;46263;44.726;10.396;2023-02-11T11:13:40;28.30;;;14.85;;
60416;SDS011;46263;44.726;10.396;2023-02-11T11:16:31;27.10;;;13.32;;
60416;SDS011;46263;44.726;10.396;2023-02-11T11:23:59;26.63;;;12.82;;
60416;SDS011;46263;44.726;10.396;2023-02-11T11:26:28;22.55;;;13.27;;
60416;SDS011;46263;44.726;10.396;2023-02-11T11:29:15;25.13;;;13.07;;
60416;SDS011;46263;44.726;10.396;2023-02-11T11:31:48;29.30;;;13.32;;
60416;SDS011;46263;44.726;10.396;2023-02-11T11:34:26;27.17;;;13.63;;
60416;SDS011;46263;44.726;10.396;2023-02-11T11:36:58;22.20;;;13.25;;
60416;SDS011;46263;44.726;10.396;2023-02-11T11:39:27;28.13;;;13.77;;
60416;SDS011;46263;44.726;10.396;2023-02-11T11:41:56;24.25;;;13.48;;
60416;SDS011;46263;44.726;10.396;2023-02-11T11:44:28;28.58;;;14.05;;
60416;SDS011;46263;44.726;10.396;2023-02-11T11:47:18;28.20;;;15.98;;
60416;SDS011;46263;44.726;10.396;2023-02-11T11:52:36;27.88;;;14.70;;
60416;SDS011;46263;44.726;10.396;2023-02-11T11:55:18;26.08;;;14.93;;
60416;SDS011;46263;44.726;10.396;2023-02-11T11:57:47;25.40;;;14.23;;
60416;SDS011;46263;44.726;10.396;2023-02-11T12:00:20;32.97;;;15.05;;
60416;SDS011;46263;44.726;10.396;2023-02-11T12:08:28;30.10;;;14.77;;
60416;SDS011;46263;44.726;10.396;2023-02-11T12:21:38;28.52;;;14.68;;
60416;SDS011;46263;44.726;10.396;2023-02-11T12:27:01;24.20;;;14.05;;
60416;SDS011;46263;44.726;10.396;2023-02-11T12:32:24;25.55;;;14.05;;
60416;SDS011;46263;44.726;10.396;2023-02-11T12:57:22;23.15;;;14.50;;
60416;SDS011;46263;44.726;10.396;2023-02-11T12:59:56;26.42;;;13.30;;
60416;SDS011;46263;44.726;10.396;2023-02-11T13:02:35;25.33;;;13.45;;
60416;SDS011;46263;44.726;10.396;2023-02-11T13:05:22;23.42;;;13.98;;
60416;SDS011;46263;44.726;10.396;2023-02-11T13:08:03;23.95;;;11.98;;
60416;SDS011;46263;44.726;10.396;2023-02-11T13:10:39;23.27;;;13.23;;
60416;SDS011;46263;44.726;10.396;2023-02-11T13:13:13;22.60;;;12.13;;
60416;SDS011;46263;44.726;10.396;2023-02-11T13:15:54;23.35;;;13.13;;
60416;SDS011;46263;44.726;10.396;2023-02-11T13:18:50;21.42;;;12.25;;
60416;SDS011;46263;44.726;10.396;2023-02-11T13:21:28;25.52;;;12.90;;
60416;SDS011;46263;44.726;10.396;2023-02-11T13:24:04;26.17;;;13.13;;
60416;SDS011;46263;44.726;10.396;2023-02-11T13:32:12;23.08;;;13.35;;
60416;SDS011;46263;44.726;10.396;2023-02-11T13:37:20;25.15;;;12.52;;
60416;SDS011;46263;44.726;10.396;2023-02-11T13:42:33;18.92;;;10.35;;
60416;SDS011;46263;44.726;10.396;2023-02-11T13:45:26;21.15;;;11.55;;
60416;SDS011;46263;44.726;10.396;2023-02-11T13:47:59;20.80;;;12.60;;
60416;SDS011;46263;44.726;10.396;2023-02-11T13:50:28;20.90;;;10.88;;
60416;SDS011;46263;44.726;10.396;2023-02-11T13:53:01;23.40;;;11.07;;
60416;SDS011;46263;44.726;10.396;2023-02-11T13:55:29;18.83;;;10.77;;
60416;SDS011;46263;44.726;10.396;2023-02-11T14:08:59;19.10;;;11.45;;
60416;SDS011;46263;44.726;10.396;2023-02-11T14:19:31;23.10;;;12.38;;
60416;SDS011;46263;44.726;10.396;2023-02-11T14:22:14;27.15;;;12.95;;
60416;SDS011;46263;44.726;10.396;2023-02-11T14:40:47;23.92;;;13.82;;
60416;SDS011;46263;44.726;10.396;2023-02-11T14:43:18;26.88;;;14.32;;
60416;SDS011;46263;44.726;10.396;2023-02-11T14:45:55;29.33;;;15.40;;
60416;SDS011;46263;44.726;10.396;2023-02-11T14:48:29;24.02;;;13.65;;
60416;SDS011;46263;44.726;10.396;2023-02-11T14:51:01;21.75;;;13.20;;
60416;SDS011;46263;44.726;10.396;2023-02-11T14:53:30;24.85;;;14.50;;
60416;SDS011;46263;44.726;10.396;2023-02-11T14:55:57;25.98;;;14.13;;
60416;SDS011;46263;44.726;10.396;2023-02-11T14:58:28;24.13;;;13.70;;
60416;SDS011;46263;44.726;10.396;2023-02-11T15:00:59;29.27;;;14.70;;
60416;SDS011;46263;44.726;10.396;2023-02-11T15:06:05;28.40;;;15.45;;
60416;SDS011;46263;44.726;10.396;2023-02-11T15:08:32;27.80;;;14.90;;
60416;SDS011;46263;44.726;10.396;2023-02-11T15:11:01;25.55;;;15.15;;
60416;SDS011;46263;44.726;10.396;2023-02-11T15:13:28;25.85;;;14.98;;
60416;SDS011;46263;44.726;10.396;2023-02-11T15:15:58;30.83;;;15.77;;
60416;SDS011;46263;44.726;10.396;2023-02-11T15:18:39;27.80;;;15.18;;
60416;SDS011;46263;44.726;10.396;2023-02-11T15:21:08;28.52;;;15.35;;
60416;SDS011;46263;44.726;10.396;2023-02-11T15:23:35;29.02;;;16.40;;
60416;SDS011;46263;44.726;10.396;2023-02-11T15:26:01;23.88;;;14.23;;
60416;SDS011;46263;44.726;10.396;2023-02-11T15:28:31;31.50;;;15.18;;
60416;SDS011;46263;44.726;10.396;2023-02-11T15:31:13;28.45;;;15.63;;
60416;SDS011;46263;44.726;10.396;2023-02-11T15:33:41;27.37;;;14.93;;
60416;SDS011;46263;44.726;10.396;2023-02-11T15:36:11;32.22;;;17.55;;
60416;SDS011;46263;44.726;10.396;2023-02-11T15:38:38;28.85;;;15.80;;
60416;SDS011;46263;44.726;10.396;2023-02-11T15:41:05;28.95;;;16.17;;
60416;SDS011;46263;44.726;10.396;2023-02-11T15:43:45;26.73;;;16.55;;
60416;SDS011;46263;44.726;10.396;2023-02-11T15:46:13;29.33;;;15.27;;
60416;SDS011;46263;44.726;10.396;2023-02-11T15:48:48;34.05;;;16.65;;
60416;SDS011;46263;44.726;10.396;2023-02-11T15:51:32;30.80;;;17.05;;
60416;SDS011;46263;44.726;10.396;2023-02-11T15:54:01;30.02;;;15.63;;
60416;SDS011;46263;44.726;10.396;2023-02-11T15:56:41;28.58;;;16.38;;
60416;SDS011;46263;44.726;10.396;2023-02-11T15:59:10;31.48;;;17.25;;
60416;SDS011;46263;44.726;10.396;2023-02-11T16:01:43;36.55;;;17.15;;
60416;SDS011;46263;44.726;10.396;2023-02-11T16:04:16;30.90;;;16.92;;
60416;SDS011;46263;44.726;10.396;2023-02-11T16:06:52;32.35;;;17.38;;
60416;SDS011;46263;44.726;10.396;2023-02-11T16:09:33;30.15;;;17.85;;
60416;SDS011;46263;44.726;10.396;2023-02-11T16:12:01;29.45;;;16.00;;
60416;SDS011;46263;44.726;10.396;2023-02-11T16:14:34;28.45;;;17.35;;
60416;SDS011;46263;44.726;10.396;2023-02-11T16:17:04;30.95;;;17.00;;
60416;SDS011;46263;44.726;10.396;2023-02-11T16:19:34;27.70;;;16.48;;
60416;SDS011;46263;44.726;10.396;2023-02-11T16:22:07;28.65;;;17.38;;
60416;SDS011;46263;44.726;10.396;2023-02-11T16:24:35;28.65;;;16.70;;
60416;SDS011;46263;44.726;10.396;2023-02-11T16:27:04;32.20;;;16.63;;
60416;SDS011;46263;44.726;10.396;2023-02-11T16:29:34;29.95;;;16.95;;
60416;SDS011;46263;44.726;10.396;2023-02-11T16:32:06;32.10;;;17.15;;
60416;SDS011;46263;44.726;10.396;2023-02-11T16:34:32;36.15;;;16.88;;
60416;SDS011;46263;44.726;10.396;2023-02-11T16:36:57;31.50;;;17.55;;
60416;SDS011;46263;44.726;10.396;2023-02-11T16:39:23;33.78;;;16.85;;
60416;SDS011;46263;44.726;10.396;2023-02-11T16:41:49;35.05;;;17.27;;
60416;SDS011;46263;44.726;10.396;2023-02-11T16:44:16;35.60;;;18.45;;
60416;SDS011;46263;44.726;10.396;2023-02-11T16:46:42;37.85;;;17.17;;
60416;SDS011;46263;44.726;10.396;2023-02-11T16:51:33;31.38;;;18.08;;
60416;SDS011;46263;44.726;10.396;2023-02-11T16:53:59;36.63;;;20.15;;
60416;SDS011;46263;44.726;10.396;2023-02-11T16:56:25;51.20;;;21.25;;
60416;SDS011;46263;44.726;10.396;2023-02-11T16:58:51;41.22;;;20.50;;
60416;SDS011;46263;44.726;10.396;2023-02-11T17:01:16;42.80;;;20.73;;
60416;SDS011;46263;44.726;10.396;2023-02-11T17:03:42;71.82;;;27.50;;
60416;SDS011;46263;44.726;10.396;2023-02-11T17:06:08;56.15;;;22.42;;
60416;SDS011;46263;44.726;10.396;2023-02-11T17:08:35;46.28;;;20.17;;
60416;SDS011;46263;44.726;10.396;2023-02-11T17:11:02;37.97;;;19.77;;
60416;SDS011;46263;44.726;10.396;2023-02-11T17:13:27;33.42;;;18.50;;
60416;SDS011;46263;44.726;10.396;2023-02-11T17:15:53;32.97;;;17.88;;
60416;SDS011;46263;44.726;10.396;2023-02-11T17:18:19;32.92;;;18.48;;
60416;SDS011;46263;44.726;10.396;2023-02-11T17:20:44;32.20;;;17.80;;
60416;SDS011;46263;44.726;10.396;2023-02-11T17:23:10;37.13;;;19.58;;
60416;SDS011;46263;44.726;10.396;2023-02-11T17:25:35;31.08;;;18.10;;
60416;SDS011;46263;44.726;10.396;2023-02-11T17:28:05;35.25;;;19.13;;
60416;SDS011;46263;44.726;10.396;2023-02-11T17:30:32;34.70;;;18.02;;
60416;SDS011;46263;44.726;10.396;2023-02-11T17:32:58;36.97;;;19.17;;
60416;SDS011;46263;44.726;10.396;2023-02-11T17:35:23;36.03;;;19.02;;